sensor_id;sensor_type;location;lat;lon;timestamp;pressure;altitude;pressure_sealevel;temperature;humidity
36092;BME280;22147;52.388;13.390;2023-08-08T00:00:55;100269.81;;;11.67;100.00
36092;BME280;22147;52.388;13.390;2023-08-08T00:03:23;100275.25;;;11.64;100.00
36092;BME280;22147;52.388;13.390;2023-08-08T00:05:52;100268.53;;;11.52;100.00
36092;BME280;22147;52.388;13.390;2023-08-08T00:08:20;100270.25;;;11.45;100.00
36092;BME280;22147;52.388;13.390;2023-08-08T00:10:49;100263.66;;;11.37;100.00
36092;BME280;22147;52.388;13.390;2023-08-08T00:13:17;100264.00;;;11.35;100.00
36092;BME280;22147;52.388;13.390;2023-08-08T00:15:46;100257.63;;;11.35;100.00
36092;BME280;22147;52.388;13.390;2023-08-08T00:18:14;100261.78;;;11.29;100.00
36092;BME280;22147;52.388;13.390;2023-08-08T00:20:42;100258.72;;;11.21;100.00
36092;BME280;22147;52.388;13.390;2023-08-08T00:23:11;100250.97;;;11.15;100.00
36092;BME280;22147;52.388;13.390;2023-08-08T00:25:39;100260.72;;;11.21;100.00
36092;BME280;22147;52.388;13.390;2023-08-08T00:28:08;100253.28;;;11.13;100.00
36092;BME280;22147;52.388;13.390;2023-08-08T00:30:36;100255.47;;;11.07;100.00
36092;BME280;22147;52.388;13.390;2023-08-08T00:33:05;100260.19;;;11.07;100.00
36092;BME280;22147;52.388;13.390;2023-08-08T00:35:33;100259.19;;;11.11;100.00
36092;BME280;22147;52.388;13.390;2023-08-08T00:38:01;100265.09;;;11.10;100.00
36092;BME280;22147;52.388;13.390;2023-08-08T00:40:30;100268.44;;;11.03;100.00
36092;BME280;22147;52.388;13.390;2023-08-08T00:42:58;100256.38;;;10.99;100.00
36092;BME280;22147;52.388;13.390;2023-08-08T00:45:28;100264.56;;;10.95;100.00
36092;BME280;22147;52.388;13.390;2023-08-08T00:47:56;100267.69;;;10.94;100.00
36092;BME280;22147;52.388;13.390;2023-08-08T00:50:24;100258.63;;;10.85;100.00
36092;BME280;22147;52.388;13.390;2023-08-08T00:52:52;100268.47;;;10.82;100.00
36092;BME280;22147;52.388;13.390;2023-08-08T00:55:21;100267.03;;;10.76;100.00
36092;BME280;22147;52.388;13.390;2023-08-08T00:57:49;100285.78;;;10.79;100.00
36092;BME280;22147;52.388;13.390;2023-08-08T01:00:17;100280.84;;;10.85;100.00
36092;BME280;22147;52.388;13.390;2023-08-08T01:02:46;100277.94;;;10.81;100.00
36092;BME280;22147;52.388;13.390;2023-08-08T01:05:14;100275.72;;;10.74;100.00
36092;BME280;22147;52.388;13.390;2023-08-08T01:08:04;100270.38;;;10.69;100.00
36092;BME280;22147;52.388;13.390;2023-08-08T01:10:41;100271.41;;;10.65;100.00
36092;BME280;22147;52.388;13.390;2023-08-08T01:13:19;100276.47;;;10.63;100.00
36092;BME280;22147;52.388;13.390;2023-08-08T01:15:56;100264.06;;;10.60;100.00
36092;BME280;22147;52.388;13.390;2023-08-08T01:18:29;100263.00;;;10.52;100.00
36092;BME280;22147;52.388;13.390;2023-08-08T01:21:03;100276.03;;;10.52;100.00
36092;BME280;22147;52.388;13.390;2023-08-08T01:23:52;100272.47;;;10.51;100.00
36092;BME280;22147;52.388;13.390;2023-08-08T01:26:27;100277.69;;;10.53;100.00
36092;BME280;22147;52.388;13.390;2023-08-08T01:28:58;100268.88;;;10.51;100.00
36092;BME280;22147;52.388;13.390;2023-08-08T01:31:28;100275.13;;;10.48;100.00
36092;BME280;22147;52.388;13.390;2023-08-08T01:33:58;100266.44;;;10.49;100.00
36092;BME280;22147;52.388;13.390;2023-08-08T01:36:57;100268.94;;;10.42;100.00
36092;BME280;22147;52.388;13.390;2023-08-08T01:39:37;100262.78;;;10.36;100.00
36092;BME280;22147;52.388;13.390;2023-08-08T01:42:12;100270.00;;;10.29;100.00
36092;BME280;22147;52.388;13.390;2023-08-08T01:44:45;100268.56;;;10.23;100.00
36092;BME280;22147;52.388;13.390;2023-08-08T01:47:15;100268.38;;;10.28;100.00
36092;BME280;22147;52.388;13.390;2023-08-08T01:49:44;100255.97;;;10.25;100.00
36092;BME280;22147;52.388;13.390;2023-08-08T01:52:12;100265.66;;;10.19;100.00
36092;BME280;22147;52.388;13.390;2023-08-08T01:54:41;100256.59;;;10.10;100.00
36092;BME280;22147;52.388;13.390;2023-08-08T01:57:09;100251.22;;;10.05;100.00
36092;BME280;22147;52.388;13.390;2023-08-08T01:59:38;100246.63;;;10.09;100.00
36092;BME280;22147;52.388;13.390;2023-08-08T02:02:06;100249.06;;;10.10;100.00
36092;BME280;22147;52.388;13.390;2023-08-08T02:04:34;100244.13;;;10.16;100.00
36092;BME280;22147;52.388;13.390;2023-08-08T02:07:03;100243.59;;;10.23;100.00
36092;BME280;22147;52.388;13.390;2023-08-08T02:09:31;100243.31;;;10.15;100.00
36092;BME280;22147;52.388;13.390;2023-08-08T02:12:00;100244.00;;;10.12;100.00
36092;BME280;22147;52.388;13.390;2023-08-08T02:14:28;100245.28;;;10.15;100.00
36092;BME280;22147;52.388;13.390;2023-08-08T02:16:57;100227.34;;;10.12;100.00
36092;BME280;22147;52.388;13.390;2023-08-08T02:19:27;100236.53;;;10.04;100.00
36092;BME280;22147;52.388;13.390;2023-08-08T02:21:57;100227.88;;;10.06;100.00
36092;BME280;22147;52.388;13.390;2023-08-08T02:24:28;100234.72;;;10.08;100.00
36092;BME280;22147;52.388;13.390;2023-08-08T02:26:58;100229.63;;;10.10;100.00
36092;BME280;22147;52.388;13.390;2023-08-08T02:29:31;100228.34;;;10.08;100.00
36092;BME280;22147;52.388;13.390;2023-08-08T02:32:02;100228.34;;;10.08;100.00
36092;BME280;22147;52.388;13.390;2023-08-08T02:34:32;100231.63;;;10.10;100.00
36092;BME280;22147;52.388;13.390;2023-08-08T02:37:02;100231.25;;;10.11;100.00
36092;BME280;22147;52.388;13.390;2023-08-08T02:39:30;100236.41;;;10.22;100.00
36092;BME280;22147;52.388;13.390;2023-08-08T02:41:59;100225.47;;;10.25;100.00
36092;BME280;22147;52.388;13.390;2023-08-08T02:44:28;100216.31;;;10.25;100.00
36092;BME280;22147;52.388;13.390;2023-08-08T02:46:56;100217.31;;;10.20;100.00
36092;BME280;22147;52.388;13.390;2023-08-08T02:49:24;100225.63;;;10.20;100.00
36092;BME280;22147;52.388;13.390;2023-08-08T02:51:53;100225.16;;;10.18;100.00
36092;BME280;22147;52.388;13.390;2023-08-08T02:54:21;100218.69;;;10.14;100.00
36092;BME280;22147;52.388;13.390;2023-08-08T02:56:49;100229.44;;;10.15;100.00
36092;BME280;22147;52.388;13.390;2023-08-08T02:59:18;100227.34;;;10.12;100.00
36092;BME280;22147;52.388;13.390;2023-08-08T03:01:46;100230.91;;;10.13;100.00
36092;BME280;22147;52.388;13.390;2023-08-08T03:04:15;100234.78;;;10.21;100.00
36092;BME280;22147;52.388;13.390;2023-08-08T03:06:43;100236.69;;;10.29;100.00
36092;BME280;22147;52.388;13.390;2023-08-08T03:09:11;100238.84;;;10.23;100.00
36092;BME280;22147;52.388;13.390;2023-08-08T03:11:40;100237.09;;;10.18;100.00
36092;BME280;22147;52.388;13.390;2023-08-08T03:14:08;100232.56;;;10.14;100.00
36092;BME280;22147;52.388;13.390;2023-08-08T03:16:37;100236.81;;;10.11;100.00
36092;BME280;22147;52.388;13.390;2023-08-08T03:19:05;100229.16;;;10.08;100.00
36092;BME280;22147;52.388;13.390;2023-08-08T03:21:34;100227.88;;;10.06;100.00
36092;BME280;22147;52.388;13.390;2023-08-08T03:24:02;100232.31;;;9.98;100.00
36092;BME280;22147;52.388;13.390;2023-08-08T03:26:30;100233.13;;;9.98;100.00
36092;BME280;22147;52.388;13.390;2023-08-08T03:28:59;100232.19;;;9.94;100.00
36092;BME280;22147;52.388;13.390;2023-08-08T03:31:27;100223.72;;;9.91;100.00
36092;BME280;22147;52.388;13.390;2023-08-08T03:33:56;100234.81;;;9.91;100.00
36092;BME280;22147;52.388;13.390;2023-08-08T03:36:24;100229.13;;;9.87;100.00
36092;BME280;22147;52.388;13.390;2023-08-08T03:38:52;100228.44;;;9.90;100.00
36092;BME280;22147;52.388;13.390;2023-08-08T03:41:21;100223.59;;;9.87;100.00
36092;BME280;22147;52.388;13.390;2023-08-08T03:43:49;100231.44;;;9.85;100.00
36092;BME280;22147;52.388;13.390;2023-08-08T03:46:18;100225.41;;;9.83;100.00
36092;BME280;22147;52.388;13.390;2023-08-08T03:48:46;100229.81;;;9.84;100.00
36092;BME280;22147;52.388;13.390;2023-08-08T03:51:14;100234.19;;;9.85;100.00
36092;BME280;22147;52.388;13.390;2023-08-08T03:53:43;100231.75;;;9.84;100.00
36092;BME280;22147;52.388;13.390;2023-08-08T03:56:11;100233.72;;;9.83;100.00
36092;BME280;22147;52.388;13.390;2023-08-08T03:58:40;100241.50;;;9.90;100.00
36092;BME280;22147;52.388;13.390;2023-08-08T04:01:08;100243.44;;;9.98;100.00
36092;BME280;22147;52.388;13.390;2023-08-08T04:03:37;100244.22;;;9.98;100.00
36092;BME280;22147;52.388;13.390;2023-08-08T04:06:05;100234.72;;;10.08;100.00
36092;BME280;22147;52.388;13.390;2023-08-08T04:08:33;100240.19;;;10.17;100.00
36092;BME280;22147;52.388;13.390;2023-08-08T04:11:02;100235.38;;;10.26;100.00
36092;BME280;22147;52.388;13.390;2023-08-08T04:13:30;100230.16;;;10.33;100.00
36092;BME280;22147;52.388;13.390;2023-08-08T04:16:00;100224.06;;;10.40;100.00
36092;BME280;22147;52.388;13.390;2023-08-08T04:18:30;100235.41;;;10.47;100.00
36092;BME280;22147;52.388;13.390;2023-08-08T04:21:00;100235.41;;;10.47;100.00
36092;BME280;22147;52.388;13.390;2023-08-08T04:23:31;100241.59;;;10.53;100.00
36092;BME280;22147;52.388;13.390;2023-08-08T04:26:01;100237.78;;;10.57;100.00
36092;BME280;22147;52.388;13.390;2023-08-08T04:28:31;100235.63;;;10.63;100.00
36092;BME280;22147;52.388;13.390;2023-08-08T04:31:01;100230.53;;;10.65;100.00
36092;BME280;22147;52.388;13.390;2023-08-08T04:33:32;100236.03;;;10.74;100.00
36092;BME280;22147;52.388;13.390;2023-08-08T04:36:02;100230.00;;;10.72;100.00
36092;BME280;22147;52.388;13.390;2023-08-08T04:38:32;100236.50;;;10.76;100.00
36092;BME280;22147;52.388;13.390;2023-08-08T04:41:03;100233.84;;;10.79;100.00
36092;BME280;22147;52.388;13.390;2023-08-08T04:43:33;100232.53;;;10.77;100.00
36092;BME280;22147;52.388;13.390;2023-08-08T04:46:03;100225.84;;;10.78;100.00
36092;BME280;22147;52.388;13.390;2023-08-08T04:48:33;100233.25;;;10.74;100.00
36092;BME280;22147;52.388;13.390;2023-08-08T04:51:08;100225.38;;;10.76;100.00
36092;BME280;22147;52.388;13.390;2023-08-08T04:53:39;100233.16;;;10.83;100.00
36092;BME280;22147;52.388;13.390;2023-08-08T04:56:09;100239.31;;;10.88;100.00
36092;BME280;22147;52.388;13.390;2023-08-08T04:58:39;100234.00;;;10.95;100.00
36092;BME280;22147;52.388;13.390;2023-08-08T05:01:09;100222.91;;;10.95;100.00
36092;BME280;22147;52.388;13.390;2023-08-08T05:03:44;100229.72;;;10.98;100.00
36092;BME280;22147;52.388;13.390;2023-08-08T05:06:14;100242.38;;;11.08;100.00
36092;BME280;22147;52.388;13.390;2023-08-08T05:08:44;100226.31;;;11.13;100.00
36092;BME280;22147;52.388;13.390;2023-08-08T05:11:15;100228.63;;;11.24;100.00
36092;BME280;22147;52.388;13.390;2023-08-08T05:13:45;100230.50;;;11.32;100.00
36092;BME280;22147;52.388;13.390;2023-08-08T05:16:15;100237.72;;;11.45;100.00
36092;BME280;22147;52.388;13.390;2023-08-08T05:18:46;100234.13;;;11.57;100.00
36092;BME280;22147;52.388;13.390;2023-08-08T05:21:16;100231.00;;;11.58;100.00
36092;BME280;22147;52.388;13.390;2023-08-08T05:23:46;100237.84;;;11.61;100.00
36092;BME280;22147;52.388;13.390;2023-08-08T05:26:17;100233.19;;;11.65;100.00
36092;BME280;22147;52.388;13.390;2023-08-08T05:28:47;100231.34;;;11.69;100.00
36092;BME280;22147;52.388;13.390;2023-08-08T05:31:17;100237.50;;;11.75;100.00
36092;BME280;22147;52.388;13.390;2023-08-08T05:33:48;100232.88;;;11.79;100.00
36092;BME280;22147;52.388;13.390;2023-08-08T05:36:16;100228.81;;;11.89;100.00
36092;BME280;22147;52.388;13.390;2023-08-08T05:38:44;100229.16;;;11.99;100.00
36092;BME280;22147;52.388;13.390;2023-08-08T05:41:13;100233.91;;;12.11;100.00
36092;BME280;22147;52.388;13.390;2023-08-08T05:43:41;100226.69;;;12.22;100.00
36092;BME280;22147;52.388;13.390;2023-08-08T05:46:09;100229.81;;;12.21;100.00
36092;BME280;22147;52.388;13.390;2023-08-08T05:48:38;100235.50;;;12.25;100.00
36092;BME280;22147;52.388;13.390;2023-08-08T05:51:06;100243.72;;;12.33;100.00
36092;BME280;22147;52.388;13.390;2023-08-08T05:53:35;100234.75;;;12.40;100.00
36092;BME280;22147;52.388;13.390;2023-08-08T05:56:03;100232.81;;;12.40;100.00
36092;BME280;22147;52.388;13.390;2023-08-08T05:58:31;100234.41;;;12.41;100.00
36092;BME280;22147;52.388;13.390;2023-08-08T06:01:00;100236.03;;;12.42;100.00
36092;BME280;22147;52.388;13.390;2023-08-08T06:03:28;100229.16;;;12.52;100.00
36092;BME280;22147;52.388;13.390;2023-08-08T06:05:57;100230.78;;;12.53;100.00
36092;BME280;22147;52.388;13.390;2023-08-08T06:08:25;100230.63;;;12.62;100.00
36092;BME280;22147;52.388;13.390;2023-08-08T06:10:54;100234.13;;;12.59;100.00
36092;BME280;22147;52.388;13.390;2023-08-08T06:13:22;100239.50;;;12.52;100.00
36092;BME280;22147;52.388;13.390;2023-08-08T06:15:50;100231.13;;;12.52;100.00
36092;BME280;22147;52.388;13.390;2023-08-08T06:18:19;100233.13;;;12.51;100.00
36092;BME280;22147;52.388;13.390;2023-08-08T06:20:47;100231.59;;;12.54;100.00
36092;BME280;22147;52.388;13.390;2023-08-08T06:23:16;100232.97;;;12.60;100.00
36092;BME280;22147;52.388;13.390;2023-08-08T06:25:44;100230.63;;;12.62;100.00
36092;BME280;22147;52.388;13.390;2023-08-08T06:28:12;100231.44;;;12.62;100.00
36092;BME280;22147;52.388;13.390;2023-08-08T06:30:41;100231.28;;;12.71;100.00
36092;BME280;22147;52.388;13.390;2023-08-08T06:33:09;100241.75;;;12.74;100.00
36092;BME280;22147;52.388;13.390;2023-08-08T06:35:39;100238.69;;;12.79;100.00
36092;BME280;22147;52.388;13.390;2023-08-08T06:38:06;100247.31;;;12.74;100.00
36092;BME280;22147;52.388;13.390;2023-08-08T06:40:34;100239.50;;;12.80;100.00
36092;BME280;22147;52.388;13.390;2023-08-08T06:43:03;100244.91;;;12.89;100.00
36092;BME280;22147;52.388;13.390;2023-08-08T06:45:31;100241.16;;;12.97;100.00
36092;BME280;22147;52.388;13.390;2023-08-08T06:48:00;100246.72;;;12.97;100.00
36092;BME280;22147;52.388;13.390;2023-08-08T06:50:28;100240.81;;;12.98;100.00
36092;BME280;22147;52.388;13.390;2023-08-08T06:52:56;100246.56;;;13.06;100.00
36092;BME280;22147;52.388;13.390;2023-08-08T06:55:26;100233.09;;;13.08;100.00
36092;BME280;22147;52.388;13.390;2023-08-08T06:57:54;100233.66;;;13.13;100.00
36092;BME280;22147;52.388;13.390;2023-08-08T07:00:23;100242.72;;;13.10;100.00
36092;BME280;22147;52.388;13.390;2023-08-08T07:02:51;100235.19;;;13.11;100.00
36092;BME280;22147;52.388;13.390;2023-08-08T07:05:20;100246.97;;;13.20;100.00
36092;BME280;22147;52.388;13.390;2023-08-08T07:07:52;100240.69;;;13.23;100.00
36092;BME280;22147;52.388;13.390;2023-08-08T07:10:22;100241.44;;;13.36;100.00
36092;BME280;22147;52.388;13.390;2023-08-08T07:12:53;100238.63;;;13.83;100.00
36092;BME280;22147;52.388;13.390;2023-08-08T07:15:23;100240.94;;;14.33;100.00
36092;BME280;22147;52.388;13.390;2023-08-08T07:17:51;100243.16;;;14.78;100.00
36092;BME280;22147;52.388;13.390;2023-08-08T07:20:20;100242.97;;;15.10;97.91
36092;BME280;22147;52.388;13.390;2023-08-08T07:22:48;100247.16;;;15.20;100.00
36092;BME280;22147;52.388;13.390;2023-08-08T07:25:17;100244.38;;;15.20;97.81
36092;BME280;22147;52.388;13.390;2023-08-08T07:27:45;100245.84;;;15.14;97.73
36092;BME280;22147;52.388;13.390;2023-08-08T07:30:13;100252.28;;;14.95;97.00
36092;BME280;22147;52.388;13.390;2023-08-08T07:32:42;100252.34;;;14.79;99.28
36092;BME280;22147;52.388;13.390;2023-08-08T07:35:10;100241.81;;;14.92;100.00
36092;BME280;22147;52.388;13.390;2023-08-08T07:37:39;100251.75;;;14.89;99.70
36092;BME280;22147;52.388;13.390;2023-08-08T07:40:18;100246.53;;;14.88;98.73
36092;BME280;22147;52.388;13.390;2023-08-08T07:42:49;100244.13;;;14.86;100.00
36092;BME280;22147;52.388;13.390;2023-08-08T07:45:20;100234.38;;;14.99;98.87
36092;BME280;22147;52.388;13.390;2023-08-08T07:47:50;100241.72;;;15.07;99.25
36092;BME280;22147;52.388;13.390;2023-08-08T07:50:21;100241.00;;;14.91;97.13
36092;BME280;22147;52.388;13.390;2023-08-08T07:52:51;100245.38;;;14.69;98.17
36092;BME280;22147;52.388;13.390;2023-08-08T07:55:21;100242.06;;;14.63;98.32
36092;BME280;22147;52.388;13.390;2023-08-08T07:57:52;100236.22;;;14.53;99.54
36092;BME280;22147;52.388;13.390;2023-08-08T08:00:22;100234.38;;;14.60;100.00
36092;BME280;22147;52.388;13.390;2023-08-08T08:02:53;100234.31;;;14.76;100.00
36092;BME280;22147;52.388;13.390;2023-08-08T08:05:23;100237.25;;;15.03;100.00
36092;BME280;22147;52.388;13.390;2023-08-08T08:07:53;100238.34;;;15.18;96.92
36092;BME280;22147;52.388;13.390;2023-08-08T08:10:23;100239.25;;;15.25;95.67
36092;BME280;22147;52.388;13.390;2023-08-08T08:12:53;100238.69;;;15.16;95.02
36092;BME280;22147;52.388;13.390;2023-08-08T08:15:28;100232.53;;;15.07;96.16
36092;BME280;22147;52.388;13.390;2023-08-08T08:17:56;100239.41;;;15.13;97.98
36092;BME280;22147;52.388;13.390;2023-08-08T08:20:25;100244.31;;;15.39;97.87
36092;BME280;22147;52.388;13.390;2023-08-08T08:22:53;100234.66;;;15.60;95.82
36092;BME280;22147;52.388;13.390;2023-08-08T08:25:21;100236.03;;;15.70;93.44
36092;BME280;22147;52.388;13.390;2023-08-08T08:27:50;100227.72;;;15.73;93.08
36092;BME280;22147;52.388;13.390;2023-08-08T08:30:18;100248.03;;;15.70;91.54
36092;BME280;22147;52.388;13.390;2023-08-08T08:32:47;100240.50;;;15.51;90.63
36092;BME280;22147;52.388;13.390;2023-08-08T08:35:15;100238.13;;;15.30;92.22
36092;BME280;22147;52.388;13.390;2023-08-08T08:37:44;100234.00;;;15.43;94.15
36092;BME280;22147;52.388;13.390;2023-08-08T08:40:13;100239.34;;;15.75;94.95
36092;BME280;22147;52.388;13.390;2023-08-08T08:42:47;100229.22;;;15.94;94.22
36092;BME280;22147;52.388;13.390;2023-08-08T08:45:20;100231.72;;;15.99;93.50
36092;BME280;22147;52.388;13.390;2023-08-08T08:47:56;100229.28;;;15.97;90.88
36092;BME280;22147;52.388;13.390;2023-08-08T08:50:31;100226.25;;;15.83;92.87
36092;BME280;22147;52.388;13.390;2023-08-08T08:53:03;100220.63;;;15.79;94.42
36092;BME280;22147;52.388;13.390;2023-08-08T08:55:34;100226.03;;;15.68;91.56
36092;BME280;22147;52.388;13.390;2023-08-08T08:58:05;100222.28;;;15.61;90.52
36092;BME280;22147;52.388;13.390;2023-08-08T09:00:36;100222.09;;;15.50;94.34
36092;BME280;22147;52.388;13.390;2023-08-08T09:03:06;100229.19;;;15.44;94.72
36092;BME280;22147;52.388;13.390;2023-08-08T09:05:39;100225.59;;;15.43;93.32
36092;BME280;22147;52.388;13.390;2023-08-08T09:08:10;100230.31;;;15.62;95.15
36092;BME280;22147;52.388;13.390;2023-08-08T09:10:41;100226.38;;;15.67;91.99
36092;BME280;22147;52.388;13.390;2023-08-08T09:13:11;100232.19;;;15.78;89.73
36092;BME280;22147;52.388;13.390;2023-08-08T09:15:42;100231.81;;;16.06;92.55
36092;BME280;22147;52.388;13.390;2023-08-08T09:18:11;100217.75;;;16.29;88.28
36092;BME280;22147;52.388;13.390;2023-08-08T09:20:47;100211.25;;;16.52;87.20
36092;BME280;22147;52.388;13.390;2023-08-08T09:23:19;100220.53;;;16.89;82.63
36092;BME280;22147;52.388;13.390;2023-08-08T09:25:49;100215.50;;;17.06;81.03
36092;BME280;22147;52.388;13.390;2023-08-08T09:28:19;100207.00;;;16.99;81.87
36092;BME280;22147;52.388;13.390;2023-08-08T09:30:49;100204.97;;;16.96;81.94
36092;BME280;22147;52.388;13.390;2023-08-08T09:33:19;100212.25;;;17.00;78.90
36092;BME280;22147;52.388;13.390;2023-08-08T09:35:53;100201.06;;;17.04;81.32
36092;BME280;22147;52.388;13.390;2023-08-08T09:38:24;100202.28;;;17.06;82.21
36092;BME280;22147;52.388;13.390;2023-08-08T09:40:54;100202.31;;;17.10;80.02
36092;BME280;22147;52.388;13.390;2023-08-08T09:43:24;100196.78;;;17.17;82.39
36092;BME280;22147;52.388;13.390;2023-08-08T09:45:54;100208.25;;;17.42;79.45
36092;BME280;22147;52.388;13.390;2023-08-08T09:48:30;100199.78;;;17.83;79.46
36092;BME280;22147;52.388;13.390;2023-08-08T09:51:01;100203.66;;;18.30;75.57
36092;BME280;22147;52.388;13.390;2023-08-08T09:53:29;100200.03;;;18.23;70.55
36092;BME280;22147;52.388;13.390;2023-08-08T09:55:57;100187.38;;;17.92;75.46
36092;BME280;22147;52.388;13.390;2023-08-08T09:58:26;100190.16;;;17.84;75.88
36092;BME280;22147;52.388;13.390;2023-08-08T10:00:54;100189.75;;;17.82;74.95
36092;BME280;22147;52.388;13.390;2023-08-08T10:03:23;100182.47;;;17.33;73.81
36092;BME280;22147;52.388;13.390;2023-08-08T10:05:54;100202.88;;;16.85;77.11
36092;BME280;22147;52.388;13.390;2023-08-08T10:08:22;100191.84;;;16.39;86.07
36092;BME280;22147;52.388;13.390;2023-08-08T10:10:51;100189.88;;;16.10;90.91
36092;BME280;22147;52.388;13.390;2023-08-08T10:13:24;100177.09;;;16.12;92.29
36092;BME280;22147;52.388;13.390;2023-08-08T10:15:55;100167.22;;;16.22;91.22
36092;BME280;22147;52.388;13.390;2023-08-08T10:18:27;100171.34;;;16.32;90.87
36092;BME280;22147;52.388;13.390;2023-08-08T10:20:57;100180.53;;;16.62;94.32
36092;BME280;22147;52.388;13.390;2023-08-08T10:23:36;100167.25;;;16.89;80.71
36092;BME280;22147;52.388;13.390;2023-08-08T10:26:20;100164.44;;;16.89;82.04
36092;BME280;22147;52.388;13.390;2023-08-08T10:29:00;100166.25;;;17.12;90.01
36092;BME280;22147;52.388;13.390;2023-08-08T10:31:34;100159.69;;;17.42;81.64
36092;BME280;22147;52.388;13.390;2023-08-08T10:34:06;100200.84;;;17.23;79.14
36092;BME280;22147;52.388;13.390;2023-08-08T10:36:48;100184.41;;;16.20;86.44
36092;BME280;22147;52.388;13.390;2023-08-08T10:39:21;100189.78;;;15.30;94.40
36092;BME280;22147;52.388;13.390;2023-08-08T10:41:51;100192.59;;;14.87;100.00
36092;BME280;22147;52.388;13.390;2023-08-08T10:44:25;100187.91;;;14.52;100.00
36092;BME280;22147;52.388;13.390;2023-08-08T10:46:56;100188.19;;;14.28;100.00
36092;BME280;22147;52.388;13.390;2023-08-08T10:49:29;100175.91;;;14.13;100.00
36092;BME280;22147;52.388;13.390;2023-08-08T10:52:03;100175.31;;;14.23;100.00
36092;BME280;22147;52.388;13.390;2023-08-08T10:54:34;100176.25;;;14.31;100.00
36092;BME280;22147;52.388;13.390;2023-08-08T10:57:15;100174.56;;;14.26;100.00
36092;BME280;22147;52.388;13.390;2023-08-08T10:59:48;100165.75;;;14.24;100.00
36092;BME280;22147;52.388;13.390;2023-08-08T11:02:20;100156.34;;;14.32;100.00
36092;BME280;22147;52.388;13.390;2023-08-08T11:04:52;100148.50;;;14.57;100.00
36092;BME280;22147;52.388;13.390;2023-08-08T11:07:28;100153.28;;;14.99;100.00
36092;BME280;22147;52.388;13.390;2023-08-08T11:10:00;100158.63;;;15.31;100.00
36092;BME280;22147;52.388;13.390;2023-08-08T11:12:30;100165.91;;;15.13;100.00
36092;BME280;22147;52.388;13.390;2023-08-08T11:15:01;100164.72;;;14.91;100.00
36092;BME280;22147;52.388;13.390;2023-08-08T11:17:32;100170.25;;;14.87;100.00
36092;BME280;22147;52.388;13.390;2023-08-08T11:20:00;100154.16;;;14.80;100.00
36092;BME280;22147;52.388;13.390;2023-08-08T11:22:28;100167.63;;;14.98;100.00
36092;BME280;22147;52.388;13.390;2023-08-08T11:25:00;100170.25;;;15.33;100.00
36092;BME280;22147;52.388;13.390;2023-08-08T11:27:33;100172.69;;;15.58;100.00
36092;BME280;22147;52.388;13.390;2023-08-08T11:30:05;100166.03;;;15.70;100.00
36092;BME280;22147;52.388;13.390;2023-08-08T11:32:39;100209.16;;;15.65;100.00
36092;BME280;22147;52.388;13.390;2023-08-08T11:35:09;100206.09;;;15.24;100.00
36092;BME280;22147;52.388;13.390;2023-08-08T11:37:40;100224.59;;;14.51;100.00
36092;BME280;22147;52.388;13.390;2023-08-08T11:40:13;100208.13;;;13.91;100.00
36092;BME280;22147;52.388;13.390;2023-08-08T11:42:45;100208.31;;;13.50;100.00
36092;BME280;22147;52.388;13.390;2023-08-08T11:45:17;100191.25;;;13.36;100.00
36092;BME280;22147;52.388;13.390;2023-08-08T11:47:55;100183.34;;;13.38;100.00
36092;BME280;22147;52.388;13.390;2023-08-08T11:50:26;100171.59;;;13.48;100.00
36092;BME280;22147;52.388;13.390;2023-08-08T11:52:59;100175.53;;;13.63;100.00
36092;BME280;22147;52.388;13.390;2023-08-08T11:55:30;100162.63;;;13.90;100.00
36092;BME280;22147;52.388;13.390;2023-08-08T11:57:57;100156.72;;;14.31;100.00
36092;BME280;22147;52.388;13.390;2023-08-08T12:00:30;100164.16;;;14.62;100.00
36092;BME280;22147;52.388;13.390;2023-08-08T12:03:01;100156.00;;;14.73;100.00
36092;BME280;22147;52.388;13.390;2023-08-08T12:05:37;100156.19;;;14.83;100.00
36092;BME280;22147;52.388;13.390;2023-08-08T12:08:08;100150.44;;;14.96;100.00
36092;BME280;22147;52.388;13.390;2023-08-08T12:10:39;100149.63;;;15.18;100.00
36092;BME280;22147;52.388;13.390;2023-08-08T12:13:08;100152.84;;;15.43;100.00
36092;BME280;22147;52.388;13.390;2023-08-08T12:15:36;100149.94;;;15.63;100.00
36092;BME280;22147;52.388;13.390;2023-08-08T12:18:05;100144.22;;;15.79;100.00
36092;BME280;22147;52.388;13.390;2023-08-08T12:20:33;100146.94;;;16.02;100.00
36092;BME280;22147;52.388;13.390;2023-08-08T12:23:01;100153.97;;;16.19;100.00
36092;BME280;22147;52.388;13.390;2023-08-08T12:25:30;100160.69;;;16.44;100.00
36092;BME280;22147;52.388;13.390;2023-08-08T12:27:58;100163.53;;;16.48;100.00
36092;BME280;22147;52.388;13.390;2023-08-08T12:30:27;100175.47;;;16.41;100.00
36092;BME280;22147;52.388;13.390;2023-08-08T12:32:55;100173.75;;;16.33;100.00
36092;BME280;22147;52.388;13.390;2023-08-08T12:35:24;100171.78;;;16.03;92.15
36092;BME280;22147;52.388;13.390;2023-08-08T12:37:55;100170.59;;;15.78;95.30
36092;BME280;22147;52.388;13.390;2023-08-08T12:40:23;100156.75;;;15.88;96.02
36092;BME280;22147;52.388;13.390;2023-08-08T12:42:52;100159.53;;;16.15;92.28
36092;BME280;22147;52.388;13.390;2023-08-08T12:45:20;100148.72;;;16.47;97.57
36092;BME280;22147;52.388;13.390;2023-08-08T12:47:52;100153.41;;;16.70;91.99